createdAt,value
2022-11-13T00:01:07.250Z,23.70
2022-11-13T00:03:33.752Z,24.52
2022-11-13T00:06:02.077Z,27.96
2022-11-13T00:08:29.071Z,24.83
2022-11-13T00:11:04.405Z,27.85
2022-11-13T00:13:31.537Z,25.81
2022-11-13T00:16:00.503Z,25.82
2022-11-13T00:18:28.469Z,25.30
2022-11-13T00:20:56.342Z,21.65
2022-11-13T00:23:23.020Z,22.12
2022-11-13T00:25:50.044Z,21.47
2022-11-13T00:28:16.600Z,22.27
2022-11-13T00:30:43.169Z,23.11
2022-11-13T00:33:09.711Z,22.15
2022-11-13T00:35:36.264Z,23.38
2022-11-13T00:38:02.771Z,22.49
2022-11-13T00:40:29.333Z,21.66
2022-11-13T00:42:55.894Z,21.11
2022-11-13T00:45:22.416Z,20.54
2022-11-13T00:47:48.938Z,20.31
2022-11-13T00:50:15.544Z,20.84
2022-11-13T00:52:42.048Z,20.19
2022-11-13T00:55:08.680Z,20.61
2022-11-13T00:57:35.212Z,20.66
2022-11-13T01:00:01.757Z,20.76
2022-11-13T01:02:28.274Z,20.24
2022-11-13T01:04:54.796Z,19.88
2022-11-13T01:07:21.355Z,20.68
2022-11-13T01:09:51.308Z,20.49
2022-11-13T01:12:17.925Z,20.89
2022-11-13T01:14:44.518Z,21.29
2022-11-13T01:17:11.052Z,22.37
2022-11-13T01:19:37.619Z,22.36
2022-11-13T01:22:04.139Z,22.02
2022-11-13T01:24:31.398Z,22.69
2022-11-13T01:26:57.902Z,22.10
2022-11-13T01:29:24.418Z,21.74
2022-11-13T01:31:50.949Z,22.88
2022-11-13T01:34:18.050Z,22.82
2022-11-13T01:36:44.557Z,23.43
2022-11-13T01:39:12.485Z,23.04
2022-11-13T01:41:40.207Z,22.98
2022-11-13T01:44:14.014Z,23.19
2022-11-13T01:46:53.927Z,23.86
2022-11-13T01:49:38.638Z,24.31
2022-11-13T01:52:11.066Z,24.01
2022-11-13T01:54:53.526Z,23.53
2022-11-13T01:57:20.781Z,24.16
2022-11-13T01:59:53.000Z,24.61
2022-11-13T02:02:19.582Z,23.83
2022-11-13T02:04:47.020Z,24.20
2022-11-13T02:07:17.456Z,24.53
2022-11-13T02:09:47.892Z,24.25
2022-11-13T02:12:19.914Z,23.69
2022-11-13T02:14:52.213Z,23.60
2022-11-13T02:17:43.447Z,23.27
2022-11-13T02:20:10.750Z,23.43
2022-11-13T02:23:00.654Z,23.42
2022-11-13T02:25:31.610Z,22.95
2022-11-13T02:27:58.501Z,23.59
2022-11-13T02:30:29.586Z,23.14
2022-11-13T02:32:58.613Z,23.05
2022-11-13T02:35:32.653Z,22.96
2022-11-13T02:38:02.578Z,22.35
2022-11-13T02:40:29.922Z,22.63
2022-11-13T02:42:56.499Z,22.79
2022-11-13T02:45:23.030Z,22.56
2022-11-13T02:47:49.747Z,22.90
2022-11-13T02:50:17.912Z,22.16
2022-11-13T02:52:44.649Z,22.33
2022-11-13T02:55:11.190Z,22.18
2022-11-13T02:57:37.804Z,22.94
2022-11-13T03:00:09.214Z,23.14
2022-11-13T03:02:40.137Z,22.95
2022-11-13T03:05:14.472Z,23.24
2022-11-13T03:07:41.876Z,23.74
2022-11-13T03:10:10.550Z,24.18
2022-11-13T03:12:37.649Z,24.04
2022-11-13T03:15:05.736Z,24.32
2022-11-13T03:17:32.598Z,23.75
2022-11-13T03:19:59.504Z,24.46
2022-11-13T03:22:27.090Z,24.24
2022-11-13T03:24:53.820Z,25.00
2022-11-13T03:27:20.626Z,24.53
2022-11-13T03:29:47.259Z,24.36
2022-11-13T03:32:13.850Z,25.02
2022-11-13T03:34:40.352Z,24.30
2022-11-13T03:37:06.922Z,24.25
2022-11-13T03:39:33.480Z,24.25
2022-11-13T03:42:00.002Z,24.40
2022-11-13T03:44:26.564Z,24.03
2022-11-13T03:46:53.097Z,23.91
2022-11-13T03:49:19.660Z,23.54
2022-11-13T03:51:47.685Z,23.85
2022-11-13T03:54:14.195Z,24.21
2022-11-13T03:56:40.742Z,24.64
2022-11-13T03:59:07.560Z,24.80
2022-11-13T04:01:34.340Z,24.26
2022-11-13T04:04:00.877Z,24.33
2022-11-13T04:06:27.376Z,23.97
2022-11-13T04:08:53.977Z,23.13
2022-11-13T04:11:20.531Z,22.67
2022-11-13T04:13:47.042Z,22.46
2022-11-13T04:16:13.677Z,22.24
2022-11-13T04:18:40.166Z,21.63
2022-11-13T04:21:06.746Z,22.13
2022-11-13T04:23:33.252Z,20.89
2022-11-13T04:25:59.795Z,21.37
2022-11-13T04:28:26.653Z,20.53
2022-11-13T04:30:55.101Z,19.84
2022-11-13T04:33:21.676Z,19.29
2022-11-13T04:35:48.842Z,18.90
2022-11-13T04:38:15.905Z,19.40
2022-11-13T04:40:42.859Z,19.07
2022-11-13T04:43:09.393Z,19.81
2022-11-13T04:45:36.253Z,20.46
2022-11-13T04:48:02.841Z,19.96
2022-11-13T04:50:31.197Z,19.96
2022-11-13T04:52:57.776Z,19.99
2022-11-13T04:55:24.333Z,19.94
2022-11-13T04:57:55.247Z,20.94
2022-11-13T05:00:22.147Z,20.26
2022-11-13T05:02:48.891Z,20.25
2022-11-13T05:05:15.587Z,20.33
2022-11-13T05:07:42.601Z,20.58
2022-11-13T05:10:09.776Z,19.77
2022-11-13T05:12:36.554Z,20.65
2022-11-13T05:15:03.570Z,20.75
2022-11-13T05:17:30.108Z,20.85
2022-11-13T05:19:56.640Z,21.29
2022-11-13T05:22:23.188Z,21.76
2022-11-13T05:24:49.691Z,20.73
2022-11-13T05:27:17.715Z,21.22
2022-11-13T05:29:44.977Z,20.28
2022-11-13T05:32:11.581Z,20.54
2022-11-13T05:34:38.089Z,20.69
2022-11-13T05:37:04.593Z,20.72
2022-11-13T05:39:31.074Z,20.85
2022-11-13T05:41:57.616Z,20.54
2022-11-13T05:44:24.128Z,20.88
2022-11-13T05:46:50.662Z,20.91
2022-11-13T05:49:17.176Z,20.11
2022-11-13T05:51:43.741Z,20.31
2022-11-13T05:54:10.987Z,20.57
2022-11-13T05:56:37.766Z,20.11
2022-11-13T05:59:05.285Z,19.82
2022-11-13T06:01:33.316Z,19.63
2022-11-13T06:04:01.533Z,19.88
2022-11-13T06:06:30.144Z,18.84
2022-11-13T06:08:59.496Z,19.60
2022-11-13T06:11:28.514Z,19.79
2022-11-13T06:13:56.283Z,19.56
2022-11-13T06:16:30.024Z,19.32
2022-11-13T06:18:58.754Z,19.30
2022-11-13T06:21:29.562Z,19.33
2022-11-13T06:24:00.873Z,19.71
2022-11-13T06:26:33.393Z,20.45
2022-11-13T06:29:01.862Z,20.27
2022-11-13T06:31:30.935Z,19.82
2022-11-13T06:34:01.534Z,20.35
2022-11-13T06:36:33.346Z,20.05
2022-11-13T06:39:00.515Z,19.74
2022-11-13T06:41:31.068Z,20.60
2022-11-13T06:44:02.797Z,25.94
2022-11-13T06:46:30.504Z,25.96
2022-11-13T06:48:57.733Z,24.46
2022-11-13T06:51:29.961Z,23.52
2022-11-13T06:53:58.028Z,24.29
2022-11-13T06:56:25.747Z,21.79
2022-11-13T06:58:54.767Z,19.31
2022-11-13T07:01:24.180Z,25.80
2022-11-13T07:03:50.837Z,28.96
2022-11-13T07:06:23.709Z,29.85
2022-11-13T07:08:51.220Z,20.81
2022-11-13T07:11:20.556Z,24.77
2022-11-13T07:13:48.064Z,27.45
2022-11-13T07:16:17.791Z,24.36
2022-11-13T07:18:51.078Z,16.99
2022-11-13T07:21:17.577Z,16.57
2022-11-13T07:23:44.479Z,16.98
2022-11-13T07:26:11.918Z,17.53
2022-11-13T07:28:39.665Z,18.90
2022-11-13T07:31:07.434Z,18.44
2022-11-13T07:33:34.322Z,17.41
2022-11-13T07:36:01.116Z,17.21
2022-11-13T07:38:27.980Z,17.07
2022-11-13T07:40:57.047Z,16.77
2022-11-13T07:43:23.582Z,30.08
2022-11-13T07:45:54.500Z,26.05
2022-11-13T07:48:22.634Z,22.43
2022-11-13T07:50:49.769Z,16.48
2022-11-13T07:53:17.488Z,16.77
2022-11-13T07:55:44.193Z,24.77
2022-11-13T07:58:10.822Z,25.92
2022-11-13T08:00:37.388Z,17.92
2022-11-13T08:03:09.472Z,15.50
2022-11-13T08:05:36.312Z,15.30
2022-11-13T08:08:03.814Z,14.96
2022-11-13T08:10:30.519Z,15.07
2022-11-13T08:13:05.572Z,15.47
2022-11-13T08:15:32.473Z,15.76
2022-11-13T08:18:00.928Z,15.82
2022-11-13T08:20:28.673Z,15.61
2022-11-13T08:22:59.670Z,16.09
2022-11-13T08:25:26.710Z,15.26
2022-11-13T08:27:54.346Z,15.35
2022-11-13T08:30:22.620Z,15.07
2022-11-13T08:32:49.321Z,18.11
2022-11-13T08:35:19.514Z,27.47
2022-11-13T08:37:46.513Z,21.97
2022-11-13T08:40:13.012Z,15.54
2022-11-13T08:42:39.594Z,14.87
2022-11-13T08:45:06.509Z,13.99
2022-11-13T08:47:33.045Z,14.21
2022-11-13T08:49:59.604Z,13.97
2022-11-13T08:52:26.144Z,14.18
2022-11-13T08:54:52.683Z,14.09
2022-11-13T08:57:19.217Z,14.05
2022-11-13T08:59:45.695Z,16.14
2022-11-13T09:02:16.006Z,13.72
2022-11-13T09:04:42.855Z,18.06
2022-11-13T09:07:09.955Z,18.28
2022-11-13T09:09:37.193Z,17.06
2022-11-13T09:12:04.050Z,14.88
2022-11-13T09:14:30.717Z,13.88
2022-11-13T09:16:57.579Z,14.28
2022-11-13T09:19:24.254Z,15.24
2022-11-13T09:21:51.908Z,14.65
2022-11-13T09:24:18.425Z,14.97
2022-11-13T09:26:44.962Z,15.82
2022-11-13T09:29:11.533Z,13.54
2022-11-13T09:31:40.929Z,13.19
2022-11-13T09:34:08.365Z,13.19
2022-11-13T09:36:35.105Z,13.10
2022-11-13T09:39:01.683Z,12.54
2022-11-13T09:41:34.672Z,11.91
2022-11-13T09:44:06.912Z,11.53
2022-11-13T09:46:50.690Z,11.17
2022-11-13T09:49:21.989Z,14.54
2022-11-13T09:51:54.661Z,11.83
2022-11-13T09:54:22.425Z,10.44
2022-11-13T09:57:02.698Z,10.25
2022-11-13T09:59:53.931Z,10.24
2022-11-13T10:02:42.457Z,10.93
2022-11-13T10:05:45.287Z,11.19
2022-11-13T10:08:24.024Z,11.13
2022-11-13T10:10:56.169Z,11.22
2022-11-13T10:13:38.171Z,10.68
2022-11-13T10:16:26.053Z,10.63
2022-11-13T10:19:01.199Z,10.39
2022-11-13T10:21:37.233Z,10.94
2022-11-13T10:24:15.827Z,10.67
2022-11-13T10:26:42.545Z,10.79
2022-11-13T10:29:15.165Z,10.26
2022-11-13T10:31:47.353Z,10.42
2022-11-13T10:34:15.515Z,13.66
2022-11-13T10:37:00.308Z,9.83
2022-11-13T10:39:26.930Z,10.26
2022-11-13T10:41:55.192Z,10.14
2022-11-13T10:44:25.235Z,10.12
2022-11-13T10:46:52.212Z,10.56
2022-11-13T10:49:21.715Z,10.36
2022-11-13T10:51:57.006Z,10.15
2022-11-13T10:54:23.571Z,9.81
2022-11-13T10:57:01.977Z,10.20
2022-11-13T10:59:40.381Z,10.14
2022-11-13T11:02:17.845Z,9.77
2022-11-13T11:04:44.821Z,10.33
2022-11-13T11:07:23.447Z,10.87
2022-11-13T11:09:51.422Z,11.67
2022-11-13T11:12:30.277Z,11.68
2022-11-13T11:15:15.485Z,12.49
2022-11-13T11:18:02.021Z,18.05
2022-11-13T11:20:47.055Z,10.96
2022-11-13T11:23:42.973Z,9.99
2022-11-13T11:26:21.087Z,17.06
2022-11-13T11:29:21.755Z,18.38
2022-11-13T11:32:03.821Z,17.38
2022-11-13T11:34:39.598Z,17.26
2022-11-13T11:37:17.019Z,16.12
2022-11-13T11:40:12.657Z,12.16
2022-11-13T11:43:05.449Z,13.30
2022-11-13T11:45:44.587Z,28.10
2022-11-13T11:48:16.253Z,13.30
2022-11-13T11:50:55.799Z,9.42
2022-11-13T11:53:58.435Z,9.97
2022-11-13T11:56:31.223Z,9.59
2022-11-13T11:59:19.226Z,10.52
2022-11-13T12:02:06.094Z,11.92
2022-11-13T12:04:50.577Z,13.59
2022-11-13T12:07:41.606Z,13.50
2022-11-13T12:10:17.081Z,16.30
2022-11-13T12:12:43.551Z,15.41
2022-11-13T12:15:12.963Z,14.65
2022-11-13T12:17:45.547Z,14.99
2022-11-13T12:20:26.083Z,14.91
2022-11-13T12:23:10.006Z,14.47
2022-11-13T12:25:45.468Z,13.92
2022-11-13T12:28:20.219Z,12.91
2022-11-13T12:31:12.762Z,12.55
2022-11-13T12:34:11.298Z,11.92
2022-11-13T12:36:38.613Z,11.66
2022-11-13T12:39:14.135Z,12.03
2022-11-13T12:41:50.302Z,10.77
2022-11-13T12:44:27.503Z,10.19
2022-11-13T12:46:57.141Z,9.98
2022-11-13T12:49:23.600Z,10.61
2022-11-13T12:52:03.637Z,10.28
2022-11-13T12:54:36.125Z,9.91
2022-11-13T12:57:18.605Z,12.91
2022-11-13T12:59:53.358Z,9.35
2022-11-13T13:02:40.585Z,8.96
2022-11-13T13:05:20.232Z,8.33
2022-11-13T13:08:24.452Z,7.01
2022-11-13T13:11:21.505Z,6.52
2022-11-13T13:14:11.897Z,7.68
2022-11-13T13:16:38.522Z,12.00
2022-11-13T13:19:08.363Z,5.92
2022-11-13T13:21:44.912Z,7.91
2022-11-13T13:24:29.781Z,10.45
2022-11-13T13:26:57.157Z,15.34
2022-11-13T13:29:26.001Z,8.79
2022-11-13T13:32:15.495Z,11.32
2022-11-13T13:35:26.571Z,11.34
2022-11-13T13:38:07.992Z,10.69
2022-11-13T13:40:52.513Z,10.72
2022-11-13T13:43:32.484Z,10.68
2022-11-13T13:46:01.727Z,11.89
2022-11-13T13:48:31.589Z,14.46
2022-11-13T13:51:00.973Z,16.78
2022-11-13T13:53:33.944Z,16.77
2022-11-13T13:56:03.857Z,17.79
2022-11-13T13:58:35.718Z,16.97
2022-11-13T14:01:18.251Z,15.28
2022-11-13T14:03:45.695Z,15.50
2022-11-13T14:06:24.032Z,15.00
2022-11-13T14:08:50.642Z,15.65
2022-11-13T14:11:26.991Z,15.57
2022-11-13T14:13:53.610Z,15.06
2022-11-13T14:16:20.234Z,14.86
2022-11-13T14:18:47.188Z,14.60
2022-11-13T14:21:24.951Z,14.32
2022-11-13T14:23:54.128Z,13.81
2022-11-13T14:26:21.181Z,13.73
2022-11-13T14:29:01.813Z,14.24
2022-11-13T14:31:32.535Z,14.13
2022-11-13T14:34:16.421Z,14.39
2022-11-13T14:36:44.071Z,14.33
2022-11-13T14:39:30.191Z,14.52
2022-11-13T14:41:59.606Z,15.14
2022-11-13T14:44:32.900Z,15.26
2022-11-13T14:47:06.242Z,15.33
2022-11-13T14:49:36.130Z,14.75
2022-11-13T14:52:04.073Z,14.80
2022-11-13T14:55:00.047Z,14.57
2022-11-13T14:57:23.002Z,14.29
2022-11-13T14:59:49.549Z,14.30
2022-11-13T15:02:16.115Z,22.58
2022-11-13T15:04:42.692Z,14.86
2022-11-13T15:07:41.065Z,14.40
2022-11-13T15:10:15.314Z,14.13
2022-11-13T15:12:46.100Z,15.07
2022-11-13T15:15:19.285Z,18.70
2022-11-13T15:17:48.820Z,19.10
2022-11-13T15:20:27.668Z,18.43
2022-11-13T15:22:56.976Z,14.86
2022-11-13T15:25:25.258Z,14.42
2022-11-13T15:27:52.163Z,15.22
2022-11-13T15:30:19.461Z,15.76
2022-11-13T15:32:46.307Z,16.32
2022-11-13T15:35:18.462Z,15.29
2022-11-13T15:37:45.344Z,15.17
2022-11-13T15:40:13.767Z,14.95
2022-11-13T15:42:40.818Z,15.39
2022-11-13T15:45:12.668Z,15.44
2022-11-13T15:47:39.177Z,15.27
2022-11-13T15:50:15.255Z,16.13
2022-11-13T15:52:49.155Z,16.25
2022-11-13T15:55:28.619Z,17.27
2022-11-13T15:57:56.072Z,16.19
2022-11-13T16:00:26.418Z,15.23
2022-11-13T16:05:27.295Z,15.88
2022-11-13T16:07:54.645Z,17.24
2022-11-13T16:10:24.892Z,24.29
2022-11-13T16:12:52.457Z,27.44
2022-11-13T16:15:20.028Z,25.50
2022-11-13T16:17:51.949Z,23.36
2022-11-13T16:20:18.838Z,36.56
2022-11-13T16:22:45.919Z,63.14
2022-11-13T16:25:15.825Z,24.71
2022-11-13T16:27:42.932Z,18.97
2022-11-13T16:30:21.480Z,19.43
2022-11-13T16:32:48.282Z,16.21
2022-11-13T16:35:19.788Z,14.47
2022-11-13T16:37:46.656Z,14.75
2022-11-13T16:40:25.491Z,13.88
2022-11-13T16:42:52.946Z,13.03
2022-11-13T16:45:20.892Z,14.40
2022-11-13T16:47:48.267Z,12.77
2022-11-13T16:50:31.275Z,12.09
2022-11-13T16:52:58.089Z,12.26
2022-11-13T16:55:24.680Z,13.35
2022-11-13T16:57:51.219Z,17.08
2022-11-13T17:00:19.543Z,16.66
2022-11-13T17:02:46.618Z,18.14
2022-11-13T17:05:16.013Z,13.00
2022-11-13T17:07:42.718Z,10.95
2022-11-13T17:10:32.566Z,10.42
2022-11-13T17:12:59.995Z,10.43
2022-11-13T17:15:26.612Z,11.79
2022-11-13T17:17:57.367Z,9.96
2022-11-13T17:20:24.488Z,10.08
2022-11-13T17:22:51.051Z,10.88
2022-11-13T17:25:18.849Z,10.95
2022-11-13T17:27:45.364Z,12.16
2022-11-13T17:30:13.383Z,14.15
2022-11-13T17:32:39.952Z,14.70
2022-11-13T17:35:06.959Z,14.96
2022-11-13T17:37:33.973Z,15.64
2022-11-13T17:40:00.770Z,17.58
2022-11-13T17:42:28.617Z,19.67
2022-11-13T17:44:55.479Z,22.24
2022-11-13T17:47:22.348Z,20.46
2022-11-13T17:49:48.950Z,17.81
2022-11-13T17:52:15.491Z,16.97
2022-11-13T17:54:42.020Z,24.52
2022-11-13T17:57:10.158Z,33.21
2022-11-13T17:59:36.766Z,22.37
2022-11-13T18:02:03.435Z,17.67
2022-11-13T18:04:30.020Z,15.55
2022-11-13T18:06:56.608Z,15.39
2022-11-13T18:09:23.099Z,17.07
2022-11-13T18:11:49.629Z,16.39
2022-11-13T18:14:16.241Z,15.69
2022-11-13T18:16:42.911Z,15.29
2022-11-13T18:19:09.487Z,16.14
2022-11-13T18:21:36.977Z,16.42
2022-11-13T18:24:07.753Z,16.49
2022-11-13T18:26:35.077Z,15.68
2022-11-13T18:29:03.358Z,15.60
2022-11-13T18:31:30.093Z,16.79
2022-11-13T18:34:01.798Z,16.37
2022-11-13T18:36:28.796Z,17.08
2022-11-13T18:38:56.023Z,16.87
2022-11-13T18:41:23.225Z,16.48
2022-11-13T18:43:51.638Z,16.86
2022-11-13T18:46:21.010Z,20.52
2022-11-13T18:48:48.683Z,20.49
2022-11-13T18:51:18.788Z,28.56
2022-11-13T18:53:50.356Z,30.19
2022-11-13T18:56:23.213Z,29.27
2022-11-13T18:58:52.103Z,19.87
2022-11-13T19:01:27.646Z,16.80
2022-11-13T19:06:43.486Z,17.57
2022-11-13T19:09:12.819Z,15.24
2022-11-13T19:11:40.268Z,14.58
2022-11-13T19:14:07.461Z,15.15
2022-11-13T19:16:38.210Z,15.14
2022-11-13T19:19:19.346Z,18.71
2022-11-13T19:21:46.106Z,19.36
2022-11-13T19:24:14.570Z,17.20
2022-11-13T19:26:42.684Z,16.10
2022-11-13T19:29:09.270Z,17.22
2022-11-13T19:31:35.810Z,16.27
2022-11-13T19:34:05.910Z,17.42
2022-11-13T19:36:33.515Z,17.94
2022-11-13T19:39:00.245Z,18.27
2022-11-13T19:41:29.127Z,17.94
2022-11-13T19:43:59.736Z,17.41
2022-11-13T19:46:26.989Z,17.86
2022-11-13T19:48:53.513Z,18.15
2022-11-13T19:51:23.080Z,18.10
2022-11-13T19:53:58.251Z,18.18
2022-11-13T19:56:27.078Z,18.27
2022-11-13T19:58:54.055Z,18.05
2022-11-13T20:01:24.833Z,16.68
2022-11-13T20:04:00.169Z,17.22
2022-11-13T20:06:28.789Z,18.12
2022-11-13T20:08:55.708Z,17.92
2022-11-13T20:11:22.269Z,17.49
2022-11-13T20:13:49.132Z,18.54
2022-11-13T20:16:17.295Z,18.51
2022-11-13T20:18:44.539Z,19.86
2022-11-13T20:21:11.567Z,19.26
2022-11-13T20:23:38.571Z,18.69
2022-11-13T20:26:10.191Z,18.67
2022-11-13T20:28:36.704Z,37.25
2022-11-13T20:31:19.300Z,39.63
2022-11-13T20:33:50.924Z,27.56
2022-11-13T20:36:18.126Z,20.16
2022-11-13T20:38:50.648Z,19.52
2022-11-13T20:41:20.387Z,19.36
2022-11-13T20:43:48.813Z,19.07
2022-11-13T20:46:18.042Z,18.07
2022-11-13T20:48:46.045Z,19.05
2022-11-13T20:51:21.913Z,19.46
2022-11-13T20:53:48.537Z,20.49
2022-11-13T20:56:16.261Z,28.23
2022-11-13T20:58:43.130Z,25.70
2022-11-13T21:01:12.970Z,23.48
2022-11-13T21:03:43.166Z,18.68
2022-11-13T21:06:12.942Z,18.49
2022-11-13T21:08:39.822Z,19.83
2022-11-13T21:11:07.889Z,18.82
2022-11-13T21:13:35.059Z,19.01
2022-11-13T21:16:07.184Z,17.43
2022-11-13T21:18:33.919Z,16.48
2022-11-13T21:21:08.243Z,16.51
2022-11-13T21:23:35.102Z,16.98
2022-11-13T21:26:03.152Z,16.49
2022-11-13T21:28:33.717Z,16.38
2022-11-13T21:31:02.767Z,15.76
2022-11-13T21:33:30.846Z,26.22
2022-11-13T21:36:04.484Z,24.95
2022-11-13T21:38:31.348Z,20.35
2022-11-13T21:41:19.014Z,17.19
2022-11-13T21:43:45.661Z,16.90
2022-11-13T21:46:14.242Z,16.79
2022-11-13T21:48:42.107Z,16.34
2022-11-13T21:51:10.049Z,16.30
2022-11-13T21:53:37.348Z,16.76
2022-11-13T21:56:04.641Z,16.47
2022-11-13T21:58:31.942Z,16.58
2022-11-13T22:00:59.516Z,16.66
2022-11-13T22:03:28.140Z,15.94
2022-11-13T22:06:13.506Z,15.75
2022-11-13T22:08:40.099Z,16.32
2022-11-13T22:11:07.074Z,16.75
2022-11-13T22:13:34.109Z,19.33
2022-11-13T22:16:04.158Z,17.34
2022-11-13T22:18:30.960Z,17.25
2022-11-13T22:21:05.255Z,16.15
2022-11-13T22:23:32.752Z,15.45
2022-11-13T22:26:11.091Z,17.99
2022-11-13T22:28:39.566Z,15.87
2022-11-13T22:31:07.399Z,15.67
2022-11-13T22:33:36.483Z,14.64
2022-11-13T22:36:14.760Z,14.42
2022-11-13T22:38:41.647Z,14.76
2022-11-13T22:41:22.931Z,14.80
2022-11-13T22:43:53.078Z,14.92
2022-11-13T22:46:22.861Z,14.98
2022-11-13T22:48:51.114Z,14.69
2022-11-13T22:51:21.085Z,14.23
2022-11-13T22:53:51.024Z,14.26
2022-11-13T22:56:19.032Z,13.59
2022-11-13T22:58:46.159Z,13.33
2022-11-13T23:01:22.158Z,14.72
2022-11-13T23:03:50.546Z,14.14
2022-11-13T23:06:20.625Z,14.40
2022-11-13T23:08:48.069Z,13.98
2022-11-13T23:11:18.547Z,13.87
2022-11-13T23:13:47.944Z,13.44
2022-11-13T23:16:15.043Z,13.51
2022-11-13T23:18:41.825Z,13.46
2022-11-13T23:21:11.539Z,13.83
2022-11-13T23:23:38.356Z,14.33
2022-11-13T23:26:06.752Z,13.70
2022-11-13T23:28:33.785Z,14.07
2022-11-13T23:31:00.325Z,13.72
2022-11-13T23:33:26.851Z,13.87
2022-11-13T23:35:53.388Z,13.85
2022-11-13T23:38:20.033Z,13.88
2022-11-13T23:40:46.866Z,13.82
2022-11-13T23:43:13.427Z,13.61
2022-11-13T23:45:39.943Z,13.75
2022-11-13T23:48:06.808Z,13.27
2022-11-13T23:50:33.316Z,13.73
2022-11-13T23:52:59.875Z,13.49
2022-11-13T23:55:26.389Z,13.57
2022-11-13T23:58:00.680Z,13.68
